createdAt,value
2023-05-05T00:02:21.600Z,3.83
2023-05-05T00:04:49.766Z,3.83
2023-05-05T00:07:17.718Z,3.73
2023-05-05T00:09:45.854Z,3.53
2023-05-05T00:12:15.151Z,4.10
2023-05-05T00:14:43.177Z,4.50
2023-05-05T00:17:11.427Z,3.80
2023-05-05T00:19:39.419Z,3.90
2023-05-05T00:22:07.587Z,3.53
2023-05-05T00:24:35.964Z,4.20
2023-05-05T00:27:04.121Z,4.87
2023-05-05T00:29:33.439Z,3.93
2023-05-05T00:32:01.466Z,4.17
2023-05-05T00:34:29.579Z,4.10
2023-05-05T00:36:57.492Z,4.27
2023-05-05T00:39:25.696Z,5.20
2023-05-05T00:41:53.604Z,4.67
2023-05-05T00:44:41.581Z,4.47
2023-05-05T00:47:09.948Z,3.70
2023-05-05T00:49:39.148Z,4.77
2023-05-05T00:52:07.891Z,4.17
2023-05-05T00:54:36.278Z,4.03
2023-05-05T00:57:04.688Z,4.43
2023-05-05T00:59:34.702Z,5.80
2023-05-05T01:02:04.381Z,3.97
2023-05-05T01:04:32.475Z,4.00
2023-05-05T01:07:10.003Z,4.50
2023-05-05T01:09:46.261Z,4.23
2023-05-05T01:12:23.734Z,3.83
2023-05-05T01:15:01.630Z,4.50
2023-05-05T01:17:46.697Z,4.70
2023-05-05T01:20:22.006Z,3.93
2023-05-05T01:22:58.693Z,4.17
2023-05-05T01:25:42.412Z,4.30
2023-05-05T01:28:25.304Z,4.60
2023-05-05T01:31:11.514Z,4.00
2023-05-05T01:33:46.923Z,4.30
2023-05-05T01:36:22.884Z,4.03
2023-05-05T01:38:56.509Z,3.90
2023-05-05T01:41:27.924Z,4.07
2023-05-05T01:43:58.319Z,4.60
2023-05-05T01:46:26.374Z,3.80
2023-05-05T01:48:56.899Z,3.87
2023-05-05T01:51:28.064Z,3.80
2023-05-05T01:53:59.999Z,4.43
2023-05-05T01:56:30.085Z,4.30
2023-05-05T01:59:01.420Z,3.30
2023-05-05T02:01:30.591Z,3.80
2023-05-05T02:04:01.564Z,4.30
2023-05-05T02:06:32.604Z,4.37
2023-05-05T02:09:01.435Z,4.27
2023-05-05T02:11:30.595Z,4.20
2023-05-05T02:13:59.855Z,4.60
2023-05-05T02:16:28.052Z,3.90
2023-05-05T02:18:57.100Z,4.60
2023-05-05T02:21:26.448Z,6.87
2023-05-05T02:23:54.438Z,4.70
2023-05-05T02:26:24.825Z,5.60
2023-05-05T02:29:01.942Z,5.23
2023-05-05T02:31:32.439Z,4.77
2023-05-05T02:34:02.536Z,4.43
2023-05-05T02:36:34.856Z,4.93
2023-05-05T02:39:09.935Z,4.70
2023-05-05T02:41:40.857Z,3.90
2023-05-05T02:44:10.573Z,4.10
2023-05-05T02:46:39.581Z,4.50
2023-05-05T02:49:07.616Z,4.20
2023-05-05T02:51:37.171Z,3.73
2023-05-05T02:54:05.683Z,4.17
2023-05-05T02:56:40.752Z,4.00
2023-05-05T02:59:15.987Z,4.80
2023-05-05T03:02:07.921Z,4.13
2023-05-05T03:04:40.845Z,3.63
2023-05-05T03:07:14.645Z,5.33
2023-05-05T03:09:47.076Z,5.20
2023-05-05T03:12:21.783Z,4.90
2023-05-05T03:14:55.359Z,4.57
2023-05-05T03:17:25.508Z,4.33
2023-05-05T03:19:54.020Z,4.73
2023-05-05T03:22:23.512Z,3.87
2023-05-05T03:24:51.987Z,3.90
2023-05-05T03:27:20.562Z,5.03
2023-05-05T03:29:48.505Z,4.33
2023-05-05T03:32:16.787Z,4.80
2023-05-05T03:34:44.698Z,4.70
2023-05-05T03:37:12.778Z,4.57
2023-05-05T03:39:42.046Z,4.60
2023-05-05T03:42:10.213Z,5.40
2023-05-05T03:44:38.139Z,4.80
2023-05-05T03:47:06.688Z,5.30
2023-05-05T03:49:34.734Z,5.00
2023-05-05T03:52:02.651Z,5.03
2023-05-05T03:54:31.181Z,6.00
2023-05-05T03:57:00.613Z,6.37
2023-05-05T03:59:28.986Z,5.03
2023-05-05T04:01:56.929Z,5.60
2023-05-05T04:04:25.008Z,4.90
2023-05-05T04:06:53.104Z,4.83
2023-05-05T04:09:21.008Z,5.07
2023-05-05T04:11:48.978Z,5.00
2023-05-05T04:14:18.245Z,5.37
2023-05-05T04:16:46.408Z,5.60
2023-05-05T04:19:14.301Z,6.00
2023-05-05T04:21:42.352Z,5.67
2023-05-05T04:24:10.551Z,5.17
2023-05-05T04:26:38.502Z,5.83
2023-05-05T04:29:06.448Z,5.70
2023-05-05T04:31:35.748Z,5.50
2023-05-05T04:34:03.862Z,6.17
2023-05-05T04:36:31.789Z,5.67
2023-05-05T04:38:59.794Z,5.70
2023-05-05T04:41:29.518Z,8.17
2023-05-05T04:43:58.046Z,10.13
2023-05-05T04:46:26.933Z,9.60
2023-05-05T04:48:56.183Z,16.17
2023-05-05T04:51:24.148Z,11.10
2023-05-05T04:53:52.290Z,7.07
2023-05-05T04:56:20.262Z,6.10
2023-05-05T04:58:48.168Z,5.43
2023-05-05T05:01:16.265Z,5.60
2023-05-05T05:03:44.326Z,5.53
2023-05-05T05:06:13.672Z,5.40
2023-05-05T05:08:41.809Z,5.37
2023-05-05T05:11:09.965Z,6.10
2023-05-05T05:13:37.896Z,4.73
2023-05-05T05:16:07.201Z,5.20
2023-05-05T05:18:35.150Z,4.87
2023-05-05T05:21:03.584Z,5.20
2023-05-05T05:23:33.056Z,4.20
2023-05-05T05:26:01.040Z,4.53
2023-05-05T05:28:29.190Z,4.50
2023-05-05T05:30:57.083Z,4.17
2023-05-05T05:33:25.157Z,4.30
2023-05-05T05:35:53.175Z,5.80
2023-05-05T05:38:21.145Z,3.97
2023-05-05T05:40:50.562Z,4.37
2023-05-05T05:43:18.493Z,4.10
2023-05-05T05:45:46.649Z,4.07
2023-05-05T05:48:14.609Z,3.60
2023-05-05T05:50:42.565Z,3.93
2023-05-05T05:53:10.569Z,4.03
2023-05-05T05:55:38.509Z,3.60
2023-05-05T05:58:07.978Z,4.47
2023-05-05T06:00:35.842Z,3.33
2023-05-05T06:03:04.100Z,4.20
2023-05-05T06:05:32.401Z,3.70
2023-05-05T06:08:00.272Z,4.40
2023-05-05T06:10:28.672Z,3.43
2023-05-05T06:12:56.705Z,3.90
2023-05-05T06:15:26.344Z,4.20
2023-05-05T06:17:54.759Z,4.63
2023-05-05T06:20:22.890Z,4.73
2023-05-05T06:22:50.845Z,3.73
2023-05-05T06:25:18.966Z,4.30
2023-05-05T06:27:47.035Z,4.03
2023-05-05T06:30:15.737Z,3.93
2023-05-05T06:32:45.157Z,3.50
2023-05-05T06:35:13.203Z,3.53
2023-05-05T06:37:41.305Z,3.67
2023-05-05T06:40:10.915Z,4.10
2023-05-05T06:42:39.038Z,2.97
2023-05-05T06:45:07.914Z,3.30
2023-05-05T06:47:36.480Z,2.80
2023-05-05T06:50:07.131Z,3.70
2023-05-05T06:52:35.378Z,3.10
2023-05-05T06:55:03.765Z,3.40
2023-05-05T06:57:31.765Z,3.20
2023-05-05T06:59:59.743Z,3.30
2023-05-05T07:02:27.754Z,3.43
2023-05-05T07:04:56.427Z,3.23
2023-05-05T07:07:26.894Z,3.77
2023-05-05T07:09:54.815Z,3.23
2023-05-05T07:12:23.060Z,3.40
2023-05-05T07:14:51.382Z,3.33
2023-05-05T07:17:19.347Z,3.03
2023-05-05T07:19:48.277Z,3.00
2023-05-05T07:22:16.591Z,3.67
2023-05-05T07:24:45.858Z,2.43
2023-05-05T07:27:14.104Z,3.70
2023-05-05T07:29:41.978Z,2.87
2023-05-05T07:32:09.983Z,3.63
2023-05-05T07:34:38.238Z,2.67
2023-05-05T07:37:06.300Z,2.70
2023-05-05T07:39:34.990Z,2.53
2023-05-05T07:42:04.244Z,2.60
2023-05-05T07:44:32.338Z,2.67
2023-05-05T07:47:00.591Z,3.47
2023-05-05T07:49:28.571Z,2.87
2023-05-05T07:51:56.622Z,2.90
2023-05-05T07:54:24.558Z,3.27
2023-05-05T07:56:52.608Z,2.40
2023-05-05T07:59:22.138Z,2.53
2023-05-05T08:01:50.090Z,2.63
2023-05-05T08:04:18.012Z,2.90
2023-05-05T08:06:46.030Z,2.20
2023-05-05T08:09:14.117Z,2.10
2023-05-05T08:11:42.215Z,1.90
2023-05-05T08:14:10.278Z,2.30
2023-05-05T08:16:39.539Z,2.20
2023-05-05T08:19:17.541Z,1.90
2023-05-05T08:21:49.404Z,2.40
2023-05-05T08:24:17.472Z,1.97
2023-05-05T08:26:45.407Z,2.50
2023-05-05T08:29:13.385Z,2.07
2023-05-05T08:31:42.743Z,1.70
2023-05-05T08:34:10.810Z,1.70
2023-05-05T08:36:38.753Z,1.93
2023-05-05T08:39:07.116Z,1.83
2023-05-05T08:41:35.671Z,1.80
2023-05-05T08:44:03.677Z,1.90
2023-05-05T08:46:32.418Z,1.80
2023-05-05T08:49:03.756Z,2.20
2023-05-05T08:51:39.038Z,1.73
2023-05-05T08:54:11.753Z,2.37
2023-05-05T08:56:42.029Z,2.40
2023-05-05T08:59:11.095Z,2.00
2023-05-05T09:01:39.365Z,2.47
2023-05-05T09:04:09.810Z,2.30
2023-05-05T09:06:38.590Z,2.20
2023-05-05T09:09:07.487Z,2.73
2023-05-05T09:11:36.346Z,2.00
2023-05-05T09:14:04.251Z,2.33
2023-05-05T09:16:32.222Z,2.63
2023-05-05T09:19:04.191Z,2.07
2023-05-05T09:21:33.612Z,1.93
2023-05-05T09:24:11.675Z,2.47
2023-05-05T09:26:42.136Z,2.23
2023-05-05T09:29:10.197Z,1.75
2023-05-05T09:31:38.613Z,2.63
2023-05-05T09:34:16.676Z,2.87
2023-05-05T09:36:49.168Z,2.07
2023-05-05T09:39:19.288Z,2.20
2023-05-05T09:41:47.642Z,2.10
2023-05-05T09:44:16.918Z,1.53
2023-05-05T09:46:52.297Z,1.90
2023-05-05T09:49:25.491Z,1.60
2023-05-05T09:51:55.928Z,2.13
2023-05-05T09:54:25.320Z,2.10
2023-05-05T09:56:53.713Z,2.00
2023-05-05T09:59:22.440Z,1.40
2023-05-05T10:01:51.337Z,1.93
2023-05-05T10:04:28.112Z,1.70
2023-05-05T10:06:58.267Z,1.70
2023-05-05T10:09:27.153Z,2.20
2023-05-05T10:11:57.224Z,1.80
2023-05-05T10:14:26.167Z,2.40
2023-05-05T10:16:56.015Z,1.77
2023-05-05T10:19:25.392Z,1.40
2023-05-05T10:21:55.265Z,1.80
2023-05-05T10:24:31.868Z,1.43
2023-05-05T10:27:02.533Z,1.80
2023-05-05T10:29:40.506Z,1.77
2023-05-05T10:32:46.603Z,1.47
2023-05-05T10:35:09.762Z,1.85
2023-05-05T10:37:39.346Z,1.50
2023-05-05T10:40:10.761Z,2.00
2023-05-05T10:42:40.600Z,1.60
2023-05-05T10:45:09.598Z,1.80
2023-05-05T10:47:40.271Z,1.80
2023-05-05T10:50:16.268Z,1.80
2023-05-05T10:52:52.410Z,1.97
2023-05-05T10:55:29.254Z,2.10
2023-05-05T10:57:57.248Z,1.63
2023-05-05T11:00:51.175Z,2.07
2023-05-05T11:03:23.288Z,2.00
2023-05-05T11:06:13.712Z,1.67
2023-05-05T11:08:45.385Z,2.13
2023-05-05T11:11:14.874Z,1.77
2023-05-05T11:13:42.862Z,2.10
2023-05-05T11:16:45.541Z,2.47
2023-05-05T11:19:48.384Z,2.60
2023-05-05T11:22:17.524Z,1.93
2023-05-05T11:24:45.671Z,2.20
2023-05-05T11:27:15.193Z,2.30
2023-05-05T11:30:08.650Z,1.97
2023-05-05T11:32:37.307Z,2.27
2023-05-05T11:35:06.170Z,2.50
2023-05-05T11:37:35.347Z,2.63
2023-05-05T11:40:15.367Z,2.43
2023-05-05T11:42:44.849Z,2.63
2023-05-05T11:45:22.357Z,2.20
2023-05-05T11:47:50.392Z,3.00
2023-05-05T11:50:23.487Z,2.70
2023-05-05T11:52:51.571Z,3.17
2023-05-05T11:55:26.104Z,2.37
2023-05-05T11:57:55.383Z,3.10
2023-05-05T12:00:33.726Z,3.07
2023-05-05T12:03:01.992Z,2.80
2023-05-05T12:05:30.211Z,3.17
2023-05-05T12:08:01.252Z,2.80
2023-05-05T12:10:29.272Z,3.27
2023-05-05T12:12:58.677Z,3.10
2023-05-05T12:15:31.250Z,2.83
2023-05-05T12:18:02.140Z,2.13
2023-05-05T12:20:34.939Z,2.93
2023-05-05T12:23:04.357Z,2.67
2023-05-05T12:25:39.626Z,2.93
2023-05-05T12:28:09.941Z,2.87
2023-05-05T12:30:37.943Z,2.60
2023-05-05T12:33:07.436Z,2.67
2023-05-05T12:35:36.743Z,2.30
2023-05-05T12:38:04.733Z,2.67
2023-05-05T12:40:47.713Z,2.30
2023-05-05T12:43:28.493Z,2.60
2023-05-05T12:46:08.421Z,2.17
2023-05-05T12:48:38.785Z,2.20
2023-05-05T12:51:14.854Z,2.67
2023-05-05T12:53:43.081Z,3.53
2023-05-05T12:56:30.352Z,2.40
2023-05-05T12:59:00.108Z,2.40
2023-05-05T13:01:28.636Z,2.70
2023-05-05T13:04:10.865Z,2.50
2023-05-05T13:06:39.989Z,3.00
2023-05-05T13:09:08.977Z,2.90
2023-05-05T13:11:38.386Z,2.13
2023-05-05T13:14:08.740Z,2.97
2023-05-05T13:16:36.823Z,2.90
2023-05-05T13:19:04.892Z,3.10
2023-05-05T13:21:33.120Z,2.93
2023-05-05T13:24:18.913Z,2.90
2023-05-05T13:26:49.497Z,2.67
2023-05-05T13:29:19.183Z,2.73
2023-05-05T13:31:47.593Z,2.90
2023-05-05T13:34:15.791Z,3.00
2023-05-05T13:36:44.790Z,2.83
2023-05-05T13:39:13.305Z,3.30
2023-05-05T13:41:42.077Z,2.47
2023-05-05T13:44:10.634Z,2.70
2023-05-05T13:46:41.043Z,2.70
2023-05-05T13:49:09.168Z,3.20
2023-05-05T13:51:38.385Z,2.50
2023-05-05T13:54:07.573Z,2.77
2023-05-05T13:56:36.332Z,3.07
2023-05-05T13:59:04.754Z,3.43
2023-05-05T14:01:32.975Z,3.10
2023-05-05T14:04:05.480Z,2.88
2023-05-05T14:06:34.286Z,2.80
2023-05-05T14:09:06.375Z,2.60
2023-05-05T14:11:35.005Z,2.57
2023-05-05T14:14:03.292Z,2.43
2023-05-05T14:16:31.769Z,2.60
2023-05-05T14:18:59.963Z,2.77
2023-05-05T14:21:29.472Z,2.53
2023-05-05T14:29:42.239Z,2.60
2023-05-05T14:32:10.188Z,2.60
2023-05-05T14:34:38.108Z,2.97
2023-05-05T14:37:07.514Z,3.10
2023-05-05T14:39:35.442Z,2.43
2023-05-05T14:42:03.616Z,2.70
2023-05-05T14:44:31.719Z,2.80
2023-05-05T14:46:59.738Z,2.67
2023-05-05T14:49:27.771Z,2.70
2023-05-05T14:51:56.809Z,3.17
2023-05-05T14:54:28.603Z,3.50
2023-05-05T14:56:58.406Z,2.70
2023-05-05T14:59:27.027Z,2.63
2023-05-05T15:01:54.998Z,2.80
2023-05-05T15:04:23.017Z,2.20
2023-05-05T15:06:51.072Z,2.80
2023-05-05T15:09:20.153Z,2.70
2023-05-05T15:11:49.413Z,2.73
2023-05-05T15:14:17.338Z,2.27
2023-05-05T15:16:46.874Z,3.17
2023-05-05T15:19:14.829Z,4.10
2023-05-05T15:21:42.860Z,3.90
2023-05-05T15:24:10.756Z,4.77
2023-05-05T15:26:39.015Z,4.40
2023-05-05T15:29:08.402Z,4.93
2023-05-05T15:31:36.452Z,4.17
2023-05-05T15:34:04.497Z,3.73
2023-05-05T15:36:32.543Z,4.80
2023-05-05T15:39:00.410Z,4.00
2023-05-05T15:41:29.515Z,4.43
2023-05-05T15:43:58.120Z,3.80
2023-05-05T15:46:27.483Z,4.10
2023-05-05T15:49:01.646Z,4.63
2023-05-05T15:51:29.677Z,3.93
2023-05-05T15:53:57.721Z,4.87
2023-05-05T15:56:27.277Z,4.80
2023-05-05T15:58:55.217Z,4.37
2023-05-05T16:01:23.240Z,4.37
2023-05-05T16:04:01.340Z,3.97
2023-05-05T16:06:29.386Z,4.27
2023-05-05T16:08:58.750Z,4.77
2023-05-05T16:11:26.926Z,4.63
2023-05-05T16:13:55.138Z,4.40
2023-05-05T16:16:23.229Z,4.83
2023-05-05T16:18:52.735Z,4.70
2023-05-05T16:21:20.665Z,5.10
2023-05-05T16:23:48.732Z,4.20
2023-05-05T16:26:16.796Z,5.10
2023-05-05T16:28:44.725Z,4.87
2023-05-05T16:31:13.460Z,5.57
2023-05-05T16:33:43.707Z,5.30
2023-05-05T16:36:13.676Z,4.60
2023-05-05T16:38:41.787Z,5.80
2023-05-05T16:41:09.803Z,5.10
2023-05-05T16:43:37.864Z,5.40
2023-05-05T16:46:07.220Z,4.50
2023-05-05T16:48:35.169Z,6.20
2023-05-05T16:51:03.208Z,4.90
2023-05-05T16:53:32.544Z,5.73
2023-05-05T16:56:00.756Z,5.67
2023-05-05T16:58:28.690Z,4.60
2023-05-05T17:00:56.864Z,4.77
2023-05-05T17:03:24.844Z,4.90
2023-05-05T17:05:54.247Z,4.80
2023-05-05T17:08:22.275Z,5.63
2023-05-05T17:10:51.573Z,4.83
2023-05-05T17:13:19.651Z,5.03
2023-05-05T17:15:47.830Z,5.30
2023-05-05T17:18:15.811Z,5.40
2023-05-05T17:20:43.737Z,4.90
2023-05-05T17:23:11.759Z,5.93
2023-05-05T17:25:39.802Z,5.57
2023-05-05T17:28:09.083Z,5.00
2023-05-05T17:30:37.574Z,4.87
2023-05-05T17:33:05.641Z,4.93
2023-05-05T17:35:34.026Z,4.77
2023-05-05T17:38:01.935Z,4.50
2023-05-05T17:40:30.021Z,4.37
2023-05-05T17:42:57.932Z,4.23
2023-05-05T17:45:27.440Z,5.10
2023-05-05T17:47:55.611Z,4.60
2023-05-05T17:50:24.382Z,4.80
2023-05-05T17:52:52.319Z,4.80
2023-05-05T17:55:20.731Z,4.10
2023-05-05T17:57:48.774Z,4.47
2023-05-05T18:00:18.194Z,4.33
2023-05-05T18:02:47.569Z,5.00
2023-05-05T18:05:15.617Z,3.90
2023-05-05T18:07:43.654Z,4.10
2023-05-05T18:10:12.058Z,4.37
2023-05-05T18:12:40.020Z,4.50
2023-05-05T18:15:09.441Z,4.33
2023-05-05T18:17:37.602Z,4.40
2023-05-05T18:20:08.352Z,3.90
2023-05-05T18:22:36.559Z,3.93
2023-05-05T18:25:07.146Z,4.47
2023-05-05T18:27:39.818Z,4.07
2023-05-05T18:30:08.932Z,4.30
2023-05-05T18:32:38.102Z,4.00
2023-05-05T18:35:08.542Z,4.60
2023-05-05T18:37:36.617Z,5.00
2023-05-05T18:40:04.840Z,4.13
2023-05-05T18:42:32.879Z,4.87
2023-05-05T18:45:00.982Z,4.70
2023-05-05T18:47:29.267Z,4.50
2023-05-05T18:49:57.332Z,4.20
2023-05-05T18:52:27.360Z,6.57
2023-05-05T18:54:55.299Z,4.47
2023-05-05T18:57:23.251Z,4.47
2023-05-05T18:59:51.518Z,2.20
2023-05-05T19:02:19.579Z,1.63
2023-05-05T19:04:47.535Z,2.33
2023-05-05T19:07:27.508Z,1.90
2023-05-05T19:10:04.354Z,1.90
2023-05-05T19:12:32.491Z,1.20
2023-05-05T19:15:00.569Z,2.20
2023-05-05T19:17:28.502Z,1.73
2023-05-05T19:19:56.791Z,2.93
2023-05-05T19:22:24.728Z,2.70
2023-05-05T19:24:52.577Z,3.00
2023-05-05T19:27:22.009Z,2.73
2023-05-05T19:29:52.356Z,2.53
2023-05-05T19:32:21.706Z,2.27
2023-05-05T19:34:49.831Z,2.10
2023-05-05T19:37:17.961Z,2.50
2023-05-05T19:39:45.896Z,3.10
2023-05-05T19:42:13.880Z,2.80
2023-05-05T19:44:43.146Z,2.30
2023-05-05T19:47:11.317Z,3.10
2023-05-05T19:49:39.439Z,2.63
2023-05-05T19:52:07.467Z,3.07
2023-05-05T19:54:36.113Z,3.00
2023-05-05T19:57:05.187Z,9.13
2023-05-05T19:59:33.696Z,6.30
2023-05-05T20:02:03.006Z,2.63
2023-05-05T20:04:30.977Z,5.23
2023-05-05T20:06:59.697Z,11.03
2023-05-05T20:09:28.293Z,2.77
2023-05-05T20:11:56.386Z,2.47
2023-05-05T20:14:24.328Z,3.77
2023-05-05T20:16:52.757Z,2.27
2023-05-05T20:19:22.132Z,2.57
2023-05-05T20:21:50.162Z,2.22
2023-05-05T20:24:18.182Z,3.50
2023-05-05T20:26:46.533Z,2.95
2023-05-05T20:29:15.129Z,2.67
2023-05-05T20:31:43.198Z,2.80
2023-05-05T20:34:11.193Z,2.80
2023-05-05T20:36:40.452Z,3.30
2023-05-05T20:39:08.516Z,3.50
2023-05-05T20:41:37.903Z,2.63
2023-05-05T20:44:06.283Z,2.27
2023-05-05T20:46:34.247Z,2.53
2023-05-05T20:49:02.156Z,2.60
2023-05-05T20:51:34.219Z,2.50
2023-05-05T20:54:03.691Z,2.00
2023-05-05T20:56:31.666Z,2.33
2023-05-05T20:58:59.815Z,2.00
2023-05-05T21:01:28.406Z,2.77
2023-05-05T21:03:56.520Z,1.93
2023-05-05T21:06:24.394Z,2.47
2023-05-05T21:08:52.281Z,1.80
2023-05-05T21:11:21.974Z,1.60
2023-05-05T21:13:49.962Z,2.33
2023-05-05T21:16:17.885Z,2.60
2023-05-05T21:18:47.297Z,1.83
2023-05-05T21:21:15.173Z,2.30
2023-05-05T21:23:43.315Z,2.20
2023-05-05T21:26:11.248Z,2.30
2023-05-05T21:28:40.480Z,2.07
2023-05-05T21:33:39.615Z,2.10
2023-05-05T21:36:07.742Z,2.77
2023-05-05T21:38:35.975Z,2.60
2023-05-05T21:41:03.905Z,2.47
2023-05-05T21:43:32.129Z,2.30
2023-05-05T21:46:01.935Z,2.60
2023-05-05T21:48:31.055Z,2.23
2023-05-05T21:50:59.029Z,2.70
2023-05-05T21:53:26.964Z,2.60
2023-05-05T21:55:55.176Z,2.50
2023-05-05T21:58:24.690Z,2.60
2023-05-05T22:00:52.826Z,2.80
2023-05-05T22:03:22.299Z,2.30
2023-05-05T22:05:50.407Z,2.70
2023-05-05T22:08:18.668Z,2.60
2023-05-05T22:10:46.686Z,2.50
2023-05-05T22:13:14.857Z,2.27
2023-05-05T22:15:47.188Z,2.57
2023-05-05T22:18:15.579Z,2.10
2023-05-05T22:20:45.052Z,2.47
2023-05-05T22:23:13.987Z,2.10
2023-05-05T22:25:42.139Z,2.83
2023-05-05T22:28:10.033Z,3.47
2023-05-05T22:30:38.018Z,3.27
2023-05-05T22:33:06.075Z,2.90
2023-05-05T22:35:34.358Z,2.60
2023-05-05T22:38:03.640Z,2.60
2023-05-05T22:40:31.673Z,3.40
2023-05-05T22:43:00.388Z,2.77
2023-05-05T22:45:28.410Z,2.77
2023-05-05T22:47:56.385Z,2.60
2023-05-05T22:50:24.479Z,2.23
2023-05-05T22:52:52.664Z,3.13
2023-05-05T22:55:22.456Z,3.40
2023-05-05T22:57:50.327Z,2.50
2023-05-05T23:00:18.518Z,2.93
2023-05-05T23:02:46.498Z,3.10
2023-05-05T23:05:14.517Z,2.47
2023-05-05T23:07:42.426Z,3.43
2023-05-05T23:10:11.091Z,3.40
2023-05-05T23:12:40.475Z,3.60
2023-05-05T23:15:09.908Z,3.13
2023-05-05T23:17:38.322Z,3.00
2023-05-05T23:20:09.518Z,3.13
2023-05-05T23:22:37.561Z,3.10
2023-05-05T23:25:05.858Z,3.00
2023-05-05T23:27:34.008Z,3.10
2023-05-05T23:30:03.244Z,3.20
2023-05-05T23:32:31.410Z,2.63
2023-05-05T23:34:59.520Z,3.23
2023-05-05T23:37:27.489Z,3.07
2023-05-05T23:39:55.585Z,3.00
2023-05-05T23:42:23.589Z,3.00
2023-05-05T23:44:51.503Z,3.90
2023-05-05T23:47:20.793Z,3.27
2023-05-05T23:49:48.802Z,2.80
2023-05-05T23:52:16.838Z,2.90
2023-05-05T23:54:46.044Z,3.50
2023-05-05T23:57:14.115Z,3.80
2023-05-05T23:59:42.096Z,3.20
